Time;durP1;ratioP1;P1;durP2;ratioP2;P2;SDS_P1;SDS_P2;PMS_P1;PMS_P2;Temp;Humidity;BMP_temperature;BMP_pressure;BME280_temperature;BME280_humidity;BME280_pressure;Samples;Min_cycle;Max_cycle;Signal;HPM_P1;HPM_P2
2024/01/06 00:01:08;;;;;;;8.07;7.37;;;6.50;83.30;;;;;;5078960;28;20211;-62
2024/01/06 00:03:36;;;;;;;9.43;8.27;;;6.60;83.60;;;;;;5085747;28;20237;-63
2024/01/06 00:06:02;;;;;;;9.10;8.03;;;6.60;83.10;;;;;;5076006;28;20250;-62
2024/01/06 00:08:29;;;;;;;8.83;7.93;;;6.50;83.30;;;;;;5085662;28;20636;-63
2024/01/06 00:10:56;;;;;;;9.23;8.43;;;6.50;83.70;;;;;;5086580;28;20206;-63
2024/01/06 00:13:22;;;;;;;10.13;8.80;;;6.40;84.00;;;;;;5085101;28;20206;-63
2024/01/06 00:15:49;;;;;;;9.27;8.30;;;6.40;84.30;;;;;;5086242;28;20348;-62
2024/01/06 00:18:15;;;;;;;9.33;8.37;;;6.40;85.40;;;;;;5084048;28;20238;-61
2024/01/06 00:20:42;;;;;;;9.37;8.43;;;6.40;84.50;;;;;;5082082;28;20212;-62
2024/01/06 00:23:08;;;;;;;8.40;7.60;;;6.50;84.60;;;;;;5082648;28;20288;-62
2024/01/06 00:25:35;;;;;;;9.13;8.20;;;6.50;84.20;;;;;;5082591;28;20900;-63
2024/01/06 00:28:01;;;;;;;8.80;7.97;;;6.50;84.50;;;;;;5087710;28;20886;-62
2024/01/06 00:30:27;;;;;;;9.40;8.57;;;6.60;84.20;;;;;;5085026;28;20261;-62
2024/01/06 00:32:53;;;;;;;9.07;8.27;;;6.60;83.30;;;;;;5086450;28;20194;-63
2024/01/06 00:35:20;;;;;;;9.10;8.07;;;6.50;83.90;;;;;;5082764;28;20225;-62
2024/01/06 00:37:47;;;;;;;9.47;8.40;;;6.50;84.30;;;;;;5084598;28;20673;-63
2024/01/06 00:40:13;;;;;;;8.53;7.73;;;6.50;84.20;;;;;;5086267;28;20238;-63
2024/01/06 00:42:40;;;;;;;8.43;7.63;;;6.50;84.00;;;;;;5078872;28;20802;-62
2024/01/06 00:45:06;;;;;;;7.40;6.70;;;6.60;83.90;;;;;;5079622;28;20280;-62
2024/01/06 00:47:33;;;;;;;8.33;7.53;;;6.70;83.40;;;;;;5083739;28;20207;-63
2024/01/06 00:49:59;;;;;;;8.90;8.00;;;6.70;82.90;;;;;;5087169;28;20254;-63
2024/01/06 00:52:26;;;;;;;8.47;7.67;;;6.60;82.80;;;;;;5083988;28;20219;-63
2024/01/06 00:54:52;;;;;;;7.87;7.07;;;6.60;83.40;;;;;;5074779;28;20243;-62
2024/01/06 00:57:23;;;;;;;7.57;6.77;;;6.60;82.80;;;;;;5079424;28;20207;-63
2024/01/06 00:59:50;;;;;;;9.43;7.90;;;6.60;83.10;;;;;;5081420;28;20211;-63
2024/01/06 01:02:16;;;;;;;7.40;6.70;;;6.50;83.50;;;;;;5082290;28;20292;-63
2024/01/06 01:04:43;;;;;;;7.97;7.13;;;6.40;82.60;;;;;;5084755;28;20584;-62
2024/01/06 01:07:09;;;;;;;6.13;5.63;;;6.40;82.60;;;;;;5084073;28;20240;-62
2024/01/06 01:09:36;;;;;;;5.17;4.67;;;6.40;82.10;;;;;;5085362;28;20267;-63
2024/01/06 01:12:03;;;;;;;4.67;4.03;;;6.50;82.40;;;;;;5081921;28;20665;-63
2024/01/06 01:14:29;;;;;;;4.70;4.30;;;6.50;80.60;;;;;;5082641;28;20213;-63
2024/01/06 01:16:56;;;;;;;5.00;4.47;;;6.50;80.60;;;;;;5080578;28;20227;-62
2024/01/06 01:19:22;;;;;;;4.67;4.10;;;6.50;80.00;;;;;;5087345;28;20201;-62
2024/01/06 01:21:49;;;;;;;4.47;4.07;;;6.50;80.50;;;;;;5081552;28;20254;-63
2024/01/06 01:24:15;;;;;;;3.90;3.70;;;6.60;80.20;;;;;;5076197;28;20214;-62
2024/01/06 01:26:42;;;;;;;3.93;3.37;;;6.50;79.50;;;;;;5075382;28;20704;-63
2024/01/06 01:29:08;;;;;;;4.03;3.73;;;6.50;79.20;;;;;;5083195;28;20685;-63
2024/01/06 01:31:35;;;;;;;4.37;3.97;;;6.50;79.30;;;;;;5086292;28;20213;-63
2024/01/06 01:34:02;;;;;;;3.50;3.30;;;6.50;79.60;;;;;;5076252;28;20302;-63
2024/01/06 01:36:28;;;;;;;3.50;3.30;;;6.50;79.50;;;;;;5080704;28;20308;-63
2024/01/06 01:38:55;;;;;;;4.07;3.70;;;6.50;78.80;;;;;;5084957;28;20210;-63
2024/01/06 01:41:21;;;;;;;3.73;3.43;;;6.50;78.40;;;;;;5077199;28;20211;-63
2024/01/06 01:43:48;;;;;;;4.07;3.60;;;6.50;79.20;;;;;;5086706;28;20207;-63
2024/01/06 01:46:14;;;;;;;3.93;3.63;;;6.50;80.20;;;;;;5081156;28;20284;-63
2024/01/06 01:48:41;;;;;;;3.47;3.17;;;6.40;79.50;;;;;;5085296;28;20329;-63
2024/01/06 01:51:08;;;;;;;3.53;3.23;;;6.30;80.40;;;;;;5079129;28;20211;-63
2024/01/06 01:53:34;;;;;;;3.63;3.33;;;6.40;80.30;;;;;;5084512;28;20626;-63
2024/01/06 01:56:01;;;;;;;3.60;3.30;;;6.40;80.50;;;;;;5081047;28;20234;-63
2024/01/06 01:58:27;;;;;;;4.97;3.93;;;6.40;81.10;;;;;;5085252;28;20203;-63
2024/01/06 02:00:54;;;;;;;5.10;4.60;;;6.50;81.10;;;;;;5084139;28;20269;-62
2024/01/06 02:03:20;;;;;;;5.33;4.83;;;6.50;80.50;;;;;;5083844;28;20287;-63
2024/01/06 02:05:47;;;;;;;6.40;5.57;;;6.40;80.60;;;;;;5079005;28;20218;-63
2024/01/06 02:08:14;;;;;;;5.10;4.60;;;6.40;81.70;;;;;;5080683;28;20202;-63
2024/01/06 02:10:40;;;;;;;5.50;5.00;;;6.40;81.90;;;;;;5077170;28;20284;-63
2024/01/06 02:13:07;;;;;;;5.27;4.77;;;6.40;82.20;;;;;;5084333;28;20684;-63
2024/01/06 02:15:34;;;;;;;5.57;5.07;;;6.50;81.30;;;;;;5078358;28;20284;-63
2024/01/06 02:18:01;;;;;;;5.53;5.03;;;6.50;82.00;;;;;;5081292;28;20206;-62
2024/01/06 02:20:27;;;;;;;5.57;5.07;;;6.40;82.60;;;;;;5077667;28;20740;-62
2024/01/06 02:22:53;;;;;;;6.20;5.60;;;6.50;82.20;;;;;;5084470;28;20245;-62
2024/01/06 02:25:20;;;;;;;6.53;5.93;;;6.40;80.90;;;;;;5085810;28;20308;-62
2024/01/06 02:27:46;;;;;;;5.93;5.43;;;6.40;81.80;;;;;;5081594;28;20272;-63
2024/01/06 02:30:13;;;;;;;7.33;6.63;;;6.40;82.60;;;;;;5081797;28;20210;-61
2024/01/06 02:32:40;;;;;;;7.03;6.43;;;6.30;82.50;;;;;;5078822;28;20238;-63
2024/01/06 02:35:06;;;;;;;7.77;6.70;;;6.30;83.50;;;;;;5077844;28;20238;-62
2024/01/06 02:37:33;;;;;;;7.60;6.80;;;6.40;83.90;;;;;;5078403;28;20259;-63
2024/01/06 02:39:59;;;;;;;7.80;7.10;;;6.40;83.70;;;;;;5078609;28;20203;-63
2024/01/06 02:42:26;;;;;;;7.83;7.03;;;6.40;82.90;;;;;;5081546;28;20302;-63
2024/01/06 02:44:52;;;;;;;7.47;6.73;;;6.30;83.40;;;;;;5079973;28;20309;-62
2024/01/06 02:47:19;;;;;;;7.60;6.47;;;6.20;84.00;;;;;;5079565;28;20259;-63
2024/01/06 02:49:45;;;;;;;6.90;6.30;;;6.20;84.90;;;;;;5079195;28;20240;-62
2024/01/06 02:52:12;;;;;;;7.17;6.47;;;6.30;84.90;;;;;;5086859;28;20652;-63
2024/01/06 02:54:38;;;;;;;7.00;6.30;;;6.40;83.70;;;;;;5083542;28;20238;-62
2024/01/06 02:57:05;;;;;;;6.27;5.67;;;6.40;83.90;;;;;;5083484;28;20593;-62
2024/01/06 02:59:32;;;;;;;7.60;6.90;;;6.30;83.70;;;;;;5080837;28;20286;-63
2024/01/06 03:01:59;;;;;;;5.50;5.10;;;6.40;82.60;;;;;;5084820;28;20292;-62
2024/01/06 03:04:25;;;;;;;7.07;6.00;;;6.40;82.60;;;;;;5080567;28;20211;-63
2024/01/06 03:06:53;;;;;;;7.37;6.77;;;6.40;82.60;;;;;;5076322;28;20737;-62
2024/01/06 03:09:19;;;;;;;6.20;5.70;;;6.30;83.60;;;;;;5080004;28;20795;-63
2024/01/06 03:11:46;;;;;;;5.87;5.20;;;6.40;83.30;;;;;;5075826;28;20284;-62
2024/01/06 03:14:13;;;;;;;6.47;5.87;;;6.30;82.50;;;;;;5082551;28;20296;-62
2024/01/06 03:16:39;;;;;;;6.57;5.97;;;6.30;84.00;;;;;;5079767;28;20744;-61
2024/01/06 03:19:06;;;;;;;6.13;5.57;;;6.40;82.80;;;;;;5079570;28;20290;-62
2024/01/06 03:21:32;;;;;;;5.57;5.07;;;6.40;82.60;;;;;;5079278;28;20237;-63
2024/01/06 03:23:59;;;;;;;5.90;5.40;;;6.40;82.10;;;;;;5081967;28;20222;-63
2024/01/06 03:26:25;;;;;;;6.00;5.43;;;6.40;81.40;;;;;;5080076;28;20258;-63
2024/01/06 03:28:52;;;;;;;6.13;5.63;;;6.40;81.20;;;;;;5085169;28;20580;-63
2024/01/06 03:31:18;;;;;;;5.77;5.27;;;6.30;81.00;;;;;;5083565;28;20290;-62
2024/01/06 03:33:47;;;;;;;5.57;5.17;;;6.30;81.90;;;;;;5082466;28;20715;-63
2024/01/06 03:36:15;;;;;;;6.17;5.47;;;6.30;81.80;;;;;;5082076;28;20304;-62
2024/01/06 03:38:42;;;;;;;5.90;5.40;;;6.20;82.40;;;;;;5087011;28;20589;-63
2024/01/06 03:41:08;;;;;;;5.50;5.10;;;6.20;83.40;;;;;;5086676;28;20236;-62
2024/01/06 03:43:35;;;;;;;5.80;5.23;;;6.20;82.80;;;;;;5081102;28;20253;-62
2024/01/06 03:46:01;;;;;;;5.20;4.80;;;6.20;82.70;;;;;;5084926;28;20241;-62
2024/01/06 03:48:28;;;;;;;4.63;4.23;;;6.20;82.40;;;;;;5089434;28;20213;-63
2024/01/06 03:50:54;;;;;;;5.10;4.70;;;6.20;82.40;;;;;;5087767;28;20656;-63
2024/01/06 03:53:21;;;;;;;5.10;4.70;;;6.10;82.30;;;;;;5090649;28;20227;-62
2024/01/06 03:55:47;;;;;;;4.97;4.57;;;6.10;82.40;;;;;;5079558;28;20280;-62
2024/01/06 03:58:14;;;;;;;4.37;4.07;;;6.10;82.30;;;;;;5086377;28;20233;-62
2024/01/06 04:00:40;;;;;;;4.80;4.30;;;6.00;82.00;;;;;;5080016;28;20263;-62
2024/01/06 04:03:08;;;;;;;5.17;4.77;;;6.00;81.90;;;;;;5086595;28;20226;-63
2024/01/06 04:05:35;;;;;;;4.50;4.10;;;6.00;82.70;;;;;;5085050;28;21045;-63
2024/01/06 04:08:01;;;;;;;3.93;3.63;;;6.00;82.30;;;;;;5083784;28;20280;-63
2024/01/06 04:10:28;;;;;;;3.67;3.37;;;6.00;82.10;;;;;;5085881;28;20224;-63
2024/01/06 04:12:54;;;;;;;3.47;3.17;;;6.10;80.90;;;;;;5083936;28;20201;-62
2024/01/06 04:15:21;;;;;;;3.33;3.00;;;6.10;79.80;;;;;;5085117;28;20576;-62
2024/01/06 04:17:47;;;;;;;3.27;3.00;;;6.20;78.10;;;;;;5085582;28;20206;-63
2024/01/06 04:20:14;;;;;;;3.30;3.10;;;6.10;78.00;;;;;;5083492;28;20202;-63
2024/01/06 04:22:41;;;;;;;3.20;3.00;;;6.10;78.00;;;;;;5078876;28;20257;-63
2024/01/06 04:25:07;;;;;;;2.30;2.20;;;6.10;77.90;;;;;;5086014;28;20659;-62
2024/01/06 04:27:34;;;;;;;2.43;2.33;;;6.00;76.60;;;;;;5079893;28;20676;-63
2024/01/06 04:30:01;;;;;;;2.40;2.30;;;6.00;76.50;;;;;;5086305;28;20300;-63
2024/01/06 04:32:28;;;;;;;2.40;2.30;;;5.90;77.20;;;;;;5081320;28;20202;-63
2024/01/06 04:34:56;;;;;;;2.40;2.20;;;5.90;76.90;;;;;;5085193;28;20263;-63
2024/01/06 04:37:23;;;;;;;2.17;2.07;;;5.80;77.50;;;;;;5081552;28;20249;-62
2024/01/06 04:39:49;;;;;;;2.20;2.10;;;5.70;78.30;;;;;;5082676;28;20240;-63
2024/01/06 04:42:16;;;;;;;2.47;2.37;;;5.80;78.60;;;;;;5087864;28;20241;-62
2024/01/06 04:44:42;;;;;;;1.97;1.87;;;5.80;78.20;;;;;;5085279;28;20563;-63
2024/01/06 04:47:09;;;;;;;2.17;2.07;;;5.80;77.70;;;;;;5086058;28;20247;-63
2024/01/06 04:49:35;;;;;;;2.10;2.00;;;5.70;77.60;;;;;;5082677;28;20280;-63
2024/01/06 04:52:02;;;;;;;2.07;1.97;;;5.70;77.70;;;;;;5084041;28;20245;-64
2024/01/06 04:54:28;;;;;;;1.70;1.60;;;5.70;78.10;;;;;;5079996;28;20743;-62
2024/01/06 04:56:55;;;;;;;1.90;1.80;;;5.60;76.30;;;;;;5084712;28;20263;-62
2024/01/06 04:59:22;;;;;;;1.63;1.53;;;5.60;76.40;;;;;;5084950;28;20298;-63
2024/01/06 05:01:48;;;;;;;1.77;1.67;;;5.50;76.10;;;;;;5085777;28;20243;-62
2024/01/06 05:04:15;;;;;;;1.70;1.70;;;5.50;77.50;;;;;;5083882;28;20287;-62
2024/01/06 05:06:41;;;;;;;1.60;1.60;;;5.50;76.50;;;;;;5084098;28;20252;-63
2024/01/06 05:09:08;;;;;;;1.30;1.30;;;5.50;75.90;;;;;;5084522;28;20236;-63
2024/01/06 05:11:34;;;;;;;1.50;1.50;;;5.50;77.00;;;;;;5078193;28;20275;-63
2024/01/06 05:14:01;;;;;;;1.90;1.80;;;5.50;76.50;;;;;;5085792;28;20297;-63
2024/01/06 05:16:28;;;;;;;1.70;1.60;;;5.60;75.70;;;;;;5082931;28;20353;-62
2024/01/06 05:18:55;;;;;;;2.00;1.90;;;5.50;76.50;;;;;;5081964;28;20606;-63
2024/01/06 05:21:21;;;;;;;2.10;2.00;;;5.60;76.90;;;;;;5082371;28;20814;-63
2024/01/06 05:23:48;;;;;;;2.10;2.00;;;5.70;77.30;;;;;;5084978;28;20246;-61
2024/01/06 05:26:14;;;;;;;1.80;1.80;;;5.70;76.50;;;;;;5085699;28;20226;-63
2024/01/06 05:28:41;;;;;;;1.80;1.80;;;5.60;76.70;;;;;;5081187;28;20225;-62
2024/01/06 05:31:07;;;;;;;2.10;2.00;;;5.50;75.80;;;;;;5085017;28;20208;-63
2024/01/06 05:33:34;;;;;;;2.07;1.97;;;5.50;76.00;;;;;;5081898;28;20872;-63
2024/01/06 05:36:00;;;;;;;2.03;1.93;;;5.60;76.70;;;;;;5085466;28;20220;-62
2024/01/06 05:38:27;;;;;;;1.70;1.70;;;5.50;75.60;;;;;;5082424;28;20226;-62
2024/01/06 05:40:53;;;;;;;1.90;1.80;;;5.40;76.60;;;;;;5084532;28;20239;-62
2024/01/06 05:43:20;;;;;;;1.90;1.80;;;5.50;76.70;;;;;;5083191;28;20670;-62
2024/01/06 05:45:46;;;;;;;1.97;1.87;;;5.50;75.60;;;;;;5082835;28;20257;-63
2024/01/06 05:48:13;;;;;;;1.70;1.60;;;5.40;76.30;;;;;;5081094;28;20753;-62
2024/01/06 05:50:40;;;;;;;1.90;1.80;;;5.40;76.20;;;;;;5080891;28;20210;-62
2024/01/06 05:53:07;;;;;;;1.77;1.77;;;5.50;76.30;;;;;;5080929;28;20234;-62
2024/01/06 05:55:33;;;;;;;1.90;1.80;;;5.50;76.80;;;;;;5083489;28;20254;-62
2024/01/06 05:58:00;;;;;;;1.87;1.77;;;5.40;77.40;;;;;;5082600;28;20234;-63
2024/01/06 06:00:27;;;;;;;2.10;2.00;;;5.40;77.60;;;;;;5081240;28;20209;-63
2024/01/06 06:02:53;;;;;;;2.07;1.97;;;5.40;77.70;;;;;;5078913;28;20274;-63
2024/01/06 06:05:20;;;;;;;3.30;2.50;;;5.30;77.50;;;;;;5083330;28;20288;-62
2024/01/06 06:07:47;;;;;;;3.03;2.83;;;5.40;77.70;;;;;;5083318;28;20201;-63
2024/01/06 06:10:15;;;;;;;2.40;2.30;;;5.40;76.60;;;;;;5083384;28;20243;-63
2024/01/06 06:12:42;;;;;;;2.23;2.10;;;5.40;76.20;;;;;;5080547;28;20687;-62
2024/01/06 06:15:09;;;;;;;2.40;2.30;;;5.40;75.60;;;;;;5080412;28;20222;-63
2024/01/06 06:17:36;;;;;;;2.20;2.10;;;5.50;74.40;;;;;;5076534;28;20241;-63
2024/01/06 06:20:02;;;;;;;2.73;2.53;;;5.40;74.90;;;;;;5078783;28;20233;-62
2024/01/06 06:22:30;;;;;;;2.40;2.30;;;5.40;75.60;;;;;;5086632;28;20205;-62
2024/01/06 06:24:57;;;;;;;2.87;2.60;;;5.30;75.10;;;;;;5074531;28;20282;-62
2024/01/06 06:27:23;;;;;;;3.10;2.90;;;5.20;76.20;;;;;;5076219;28;20281;-63
2024/01/06 06:29:50;;;;;;;3.13;2.93;;;5.10;76.60;;;;;;5083048;28;20236;-63
2024/01/06 06:32:17;;;;;;;3.00;2.80;;;5.10;76.90;;;;;;5080876;28;20246;-63
2024/01/06 06:34:43;;;;;;;2.70;2.60;;;5.00;76.50;;;;;;5083045;28;20700;-62
2024/01/06 06:37:10;;;;;;;2.97;2.77;;;5.10;76.30;;;;;;5077687;28;20201;-63
2024/01/06 06:39:36;;;;;;;2.97;2.63;;;5.00;77.00;;;;;;5077718;28;20239;-62
2024/01/06 06:42:02;;;;;;;3.13;2.70;;;5.10;77.10;;;;;;5078437;28;20198;-62
2024/01/06 06:44:29;;;;;;;2.73;2.53;;;5.00;77.10;;;;;;5071520;28;20255;-63
2024/01/06 06:46:55;;;;;;;3.40;3.10;;;5.10;76.00;;;;;;5078256;28;20256;-63
2024/01/06 06:49:22;;;;;;;3.43;2.77;;;5.10;76.30;;;;;;5077056;28;20680;-62
2024/01/06 06:51:49;;;;;;;2.80;2.60;;;5.00;75.70;;;;;;5081137;28;20224;-63
2024/01/06 06:54:16;;;;;;;2.83;2.63;;;5.00;75.70;;;;;;5079833;28;20203;-63
2024/01/06 06:56:43;;;;;;;2.97;2.77;;;5.00;76.00;;;;;;5083849;28;20304;-62
2024/01/06 06:59:09;;;;;;;2.77;2.57;;;5.00;76.40;;;;;;5076110;28;20205;-62
2024/01/06 07:01:36;;;;;;;3.00;2.80;;;4.90;76.40;;;;;;5069061;28;20257;-63
2024/01/06 07:04:03;;;;;;;3.20;2.90;;;4.80;77.00;;;;;;5072483;28;20264;-62
2024/01/06 07:06:29;;;;;;;3.00;2.80;;;4.80;77.60;;;;;;5082094;28;20229;-63
2024/01/06 07:08:56;;;;;;;3.13;2.93;;;4.80;78.00;;;;;;5080618;28;20588;-62
2024/01/06 07:11:22;;;;;;;3.57;2.97;;;4.80;77.50;;;;;;5082359;28;20239;-63
2024/01/06 07:13:49;;;;;;;3.00;2.80;;;4.80;77.30;;;;;;5080058;28;20223;-63
2024/01/06 07:16:15;;;;;;;3.50;3.17;;;4.80;77.20;;;;;;5080039;28;20260;-62
2024/01/06 07:18:42;;;;;;;3.17;2.97;;;4.80;77.70;;;;;;5084844;28;20652;-62
2024/01/06 07:21:08;;;;;;;3.13;2.90;;;4.80;78.00;;;;;;5076891;28;20687;-62
2024/01/06 07:23:35;;;;;;;3.27;3.00;;;4.90;76.90;;;;;;5081058;28;20287;-63
2024/01/06 07:26:02;;;;;;;3.00;2.60;;;4.90;76.90;;;;;;5075793;28;20302;-63
2024/01/06 07:28:29;;;;;;;3.30;3.00;;;4.80;76.80;;;;;;5082036;28;20271;-62
2024/01/06 07:30:55;;;;;;;3.40;3.00;;;4.90;76.20;;;;;;5083046;28;20212;-62
2024/01/06 07:33:22;;;;;;;3.20;2.90;;;4.80;75.90;;;;;;5077126;28;20676;-62
2024/01/06 07:35:48;;;;;;;3.10;2.77;;;4.80;75.70;;;;;;5083452;28;20312;-62
2024/01/06 07:38:15;;;;;;;3.20;3.00;;;4.80;75.90;;;;;;5076013;28;20278;-62
2024/01/06 07:40:44;;;;;;;3.20;2.90;;;4.70;77.00;;;;;;5081021;28;20277;-63
2024/01/06 07:43:10;;;;;;;3.07;2.57;;;4.70;77.30;;;;;;5078802;28;20211;-63
2024/01/06 07:45:37;;;;;;;3.40;3.13;;;4.80;76.80;;;;;;5072416;28;20283;-63
2024/01/06 07:48:03;;;;;;;3.33;3.00;;;4.80;76.90;;;;;;5083879;28;20203;-63
2024/01/06 07:50:30;;;;;;;3.77;3.47;;;4.80;76.40;;;;;;5080713;28;20668;-63
2024/01/06 07:52:57;;;;;;;4.33;3.80;;;4.80;76.40;;;;;;5076094;28;20240;-63
2024/01/06 07:55:24;;;;;;;4.43;3.80;;;4.80;76.80;;;;;;5080848;28;20235;-63
2024/01/06 07:57:50;;;;;;;3.97;3.40;;;4.80;76.40;;;;;;5080056;28;20651;-62
2024/01/06 08:00:17;;;;;;;3.97;3.57;;;4.90;75.90;;;;;;5073898;28;20285;-63
2024/01/06 08:02:44;;;;;;;4.30;3.90;;;4.90;75.10;;;;;;5079414;28;20205;-62
2024/01/06 08:05:10;;;;;;;4.20;3.80;;;4.90;76.50;;;;;;5081803;28;20782;-63
2024/01/06 08:07:37;;;;;;;4.17;3.80;;;4.90;76.40;;;;;;5079436;28;20700;-63
2024/01/06 08:10:04;;;;;;;4.40;3.70;;;5.00;76.40;;;;;;5079173;28;20205;-63
2024/01/06 08:12:31;;;;;;;4.20;3.90;;;5.00;76.50;;;;;;5081269;28;20201;-63
2024/01/06 08:14:57;;;;;;;4.33;3.93;;;5.00;76.10;;;;;;5085411;28;20325;-63
2024/01/06 08:17:24;;;;;;;4.20;3.90;;;5.00;75.90;;;;;;5082652;28;20493;-63
2024/01/06 08:19:50;;;;;;;4.13;3.73;;;4.90;76.30;;;;;;5083079;28;20196;-62
2024/01/06 08:22:17;;;;;;;4.17;3.40;;;5.00;75.50;;;;;;5083992;28;20255;-62
2024/01/06 08:24:43;;;;;;;5.30;3.57;;;5.00;75.90;;;;;;5084369;28;20281;-62
2024/01/06 08:27:10;;;;;;;3.83;3.40;;;5.00;75.70;;;;;;5083146;28;20205;-61
2024/01/06 08:29:37;;;;;;;4.37;3.30;;;5.00;74.70;;;;;;5086078;28;20279;-63
2024/01/06 08:32:03;;;;;;;3.53;3.07;;;4.90;74.80;;;;;;5077490;28;20237;-62
2024/01/06 08:34:30;;;;;;;3.40;3.00;;;4.90;73.10;;;;;;5081829;28;20302;-63
2024/01/06 08:36:56;;;;;;;2.80;2.60;;;4.80;74.70;;;;;;5085310;28;20236;-63
2024/01/06 08:39:23;;;;;;;4.10;3.00;;;4.90;74.10;;;;;;5083066;28;20234;-63
2024/01/06 08:41:50;;;;;;;2.80;2.60;;;4.90;72.50;;;;;;5082008;28;20254;-62
2024/01/06 08:44:17;;;;;;;4.00;2.90;;;4.90;73.20;;;;;;5082403;28;20232;-62
2024/01/06 08:46:43;;;;;;;3.57;2.70;;;4.90;72.50;;;;;;5082620;28;20368;-63
2024/01/06 08:49:10;;;;;;;3.00;2.80;;;4.90;72.80;;;;;;5076570;28;20300;-62
2024/01/06 08:51:36;;;;;;;2.90;2.70;;;4.80;73.90;;;;;;5085497;28;20716;-62
2024/01/06 08:54:05;;;;;;;3.13;2.83;;;4.80;74.00;;;;;;5077139;28;20228;-63
2024/01/06 08:56:31;;;;;;;3.33;2.87;;;4.80;73.70;;;;;;5081593;28;20266;-63
2024/01/06 08:58:59;;;;;;;3.23;2.63;;;4.80;73.20;;;;;;5074242;28;20232;-62
2024/01/06 09:01:25;;;;;;;3.33;2.70;;;4.80;73.20;;;;;;5079600;28;20231;-63
2024/01/06 09:03:52;;;;;;;3.03;2.60;;;5.00;73.30;;;;;;5084677;28;20715;-63
2024/01/06 09:06:18;;;;;;;5.77;3.17;;;5.00;73.70;;;;;;5081746;28;20226;-63
2024/01/06 09:08:45;;;;;;;3.80;3.30;;;5.00;72.60;;;;;;5081686;28;20243;-63
2024/01/06 09:11:11;;;;;;;3.47;2.70;;;5.00;72.60;;;;;;5075532;28;20686;-57
2024/01/06 09:13:37;;;;;;;2.60;2.40;;;5.20;73.40;;;;;;5076238;28;20243;-56
2024/01/06 09:16:04;;;;;;;4.03;2.70;;;5.40;72.10;;;;;;5078151;28;20260;-64
2024/01/06 09:18:31;;;;;;;3.43;2.70;;;5.40;69.80;;;;;;5075005;28;20685;-63
2024/01/06 09:20:58;;;;;;;4.43;3.30;;;5.30;71.00;;;;;;5078313;28;20205;-63
2024/01/06 09:23:24;;;;;;;2.57;2.37;;;5.30;72.20;;;;;;5081990;28;20250;-62
2024/01/06 09:25:51;;;;;;;3.10;2.60;;;5.20;72.80;;;;;;5079290;28;20728;-63
2024/01/06 09:28:18;;;;;;;3.37;2.90;;;5.20;71.60;;;;;;5084917;28;20288;-63
2024/01/06 09:30:45;;;;;;;3.37;3.03;;;5.10;71.70;;;;;;5077009;28;20216;-62
2024/01/06 09:33:15;;;;;;;4.03;3.30;;;5.20;72.80;;;;;;5081613;28;20210;-63
2024/01/06 09:35:41;;;;;;;3.60;3.30;;;5.10;71.90;;;;;;5078870;28;20309;-63
2024/01/06 09:38:08;;;;;;;4.77;2.93;;;5.20;72.80;;;;;;5077154;28;20205;-63
2024/01/06 09:40:35;;;;;;;3.17;2.87;;;5.20;72.80;;;;;;5074142;28;20247;-63
2024/01/06 09:43:01;;;;;;;3.77;2.60;;;5.20;72.10;;;;;;5075886;28;20550;-62
2024/01/06 09:45:28;;;;;;;4.80;3.00;;;5.10;72.30;;;;;;5072246;28;20232;-63
2024/01/06 09:47:55;;;;;;;4.63;3.20;;;5.20;72.80;;;;;;5075725;28;20298;-63
2024/01/06 09:50:22;;;;;;;5.60;3.47;;;5.20;72.10;;;;;;5080715;28;20256;-63
2024/01/06 09:52:53;;;;;;;3.00;2.60;;;5.20;71.60;;;;;;5080698;28;20249;-63
2024/01/06 09:55:20;;;;;;;2.90;2.70;;;5.20;71.80;;;;;;5080966;28;20703;-64
2024/01/06 09:57:46;;;;;;;3.30;2.83;;;5.30;70.30;;;;;;5076852;28;20205;-64
2024/01/06 10:00:13;;;;;;;3.50;3.20;;;5.10;71.10;;;;;;5076388;28;20240;-64
2024/01/06 10:02:40;;;;;;;6.67;3.40;;;5.10;72.00;;;;;;5078182;28;20641;-64
2024/01/06 10:05:07;;;;;;;4.33;3.10;;;5.30;73.10;;;;;;5080285;28;20233;-64
2024/01/06 10:07:33;;;;;;;5.30;3.50;;;5.20;71.50;;;;;;5077684;28;20248;-64
2024/01/06 10:10:00;;;;;;;3.77;3.43;;;5.10;73.40;;;;;;5076135;28;20224;-64
2024/01/06 10:12:28;;;;;;;4.83;3.40;;;5.20;73.50;;;;;;5079587;28;20299;-64
2024/01/06 10:14:54;;;;;;;3.80;3.40;;;5.20;73.10;;;;;;5077865;28;20197;-64
2024/01/06 10:17:21;;;;;;;4.50;4.10;;;5.20;74.10;;;;;;5071857;28;20306;-64
2024/01/06 10:19:48;;;;;;;4.33;3.83;;;5.20;72.80;;;;;;5074409;28;20253;-64
2024/01/06 10:22:15;;;;;;;4.67;3.57;;;5.30;73.20;;;;;;5079904;28;20295;-64
2024/01/06 10:24:41;;;;;;;5.67;3.97;;;5.40;73.00;;;;;;5075626;28;20227;-64
2024/01/06 10:27:09;;;;;;;4.67;3.53;;;5.40;72.90;;;;;;5079537;28;20213;-64
2024/01/06 10:29:36;;;;;;;5.03;3.70;;;5.20;73.10;;;;;;5082631;28;20204;-64
2024/01/06 10:32:03;;;;;;;4.23;3.60;;;5.30;74.60;;;;;;5076364;28;20199;-64
2024/01/06 10:34:32;;;;;;;4.20;3.80;;;5.40;74.30;;;;;;5077950;28;20207;-64
2024/01/06 10:36:58;;;;;;;4.80;3.70;;;5.40;72.90;;;;;;5083781;28;20222;-64
2024/01/06 10:39:25;;;;;;;4.63;4.23;;;5.40;72.90;;;;;;5069269;28;20715;-65
2024/01/06 10:41:52;;;;;;;4.47;4.07;;;5.40;72.90;;;;;;5080784;28;20227;-63
2024/01/06 10:44:18;;;;;;;4.73;4.00;;;5.40;72.60;;;;;;5080917;28;20587;-64
2024/01/06 10:46:45;;;;;;;4.93;4.23;;;5.50;72.50;;;;;;5068207;28;20284;-64
2024/01/06 10:49:11;;;;;;;4.87;4.33;;;5.50;72.40;;;;;;5075976;28;20217;-64
2024/01/06 10:51:38;;;;;;;4.23;3.90;;;5.50;72.20;;;;;;5083123;28;20299;-64
2024/01/06 10:54:05;;;;;;;3.87;3.17;;;5.40;71.10;;;;;;5081245;28;20209;-64
2024/01/06 10:56:32;;;;;;;4.37;3.80;;;5.50;71.70;;;;;;5073070;28;20383;-64
2024/01/06 10:58:58;;;;;;;3.77;3.47;;;5.40;70.80;;;;;;5078106;28;20202;-64
2024/01/06 11:01:25;;;;;;;5.10;3.60;;;5.40;71.00;;;;;;5082168;28;20301;-64
2024/01/06 11:03:51;;;;;;;4.30;3.30;;;5.50;71.50;;;;;;5084074;28;20261;-64
2024/01/06 11:06:18;;;;;;;3.83;3.43;;;5.40;71.40;;;;;;5083209;28;20237;-65
2024/01/06 11:08:49;;;;;;;5.83;3.87;;;5.40;72.10;;;;;;5074380;28;20749;-64
2024/01/06 11:11:15;;;;;;;5.07;3.80;;;5.50;72.80;;;;;;5082481;28;20297;-64
2024/01/06 11:13:43;;;;;;;4.80;3.97;;;5.50;73.00;;;;;;5076756;28;20205;-63
2024/01/06 11:16:10;;;;;;;3.93;3.53;;;5.50;70.80;;;;;;5082946;28;20275;-64
2024/01/06 11:18:38;;;;;;;5.83;3.73;;;5.50;71.60;;;;;;5083093;28;20474;-64
2024/01/06 11:21:04;;;;;;;4.83;3.80;;;5.50;71.30;;;;;;5077428;28;20593;-64
2024/01/06 11:23:33;;;;;;;4.63;4.20;;;5.60;70.90;;;;;;5071605;28;20675;-64
2024/01/06 11:25:59;;;;;;;5.27;4.70;;;5.50;70.90;;;;;;5076772;28;20229;-64
2024/01/06 11:28:26;;;;;;;4.83;3.90;;;5.50;72.10;;;;;;5075375;28;20248;-65
2024/01/06 11:30:54;;;;;;;6.27;4.70;;;5.50;72.00;;;;;;5081905;28;20258;-65
2024/01/06 11:33:21;;;;;;;5.47;4.20;;;5.40;70.60;;;;;;5067334;28;20291;-65
2024/01/06 11:35:49;;;;;;;4.60;4.20;;;5.40;70.90;;;;;;5072090;28;20228;-65
2024/01/06 11:38:18;;;;;;;7.07;5.00;;;5.40;70.50;;;;;;5080617;28;20417;-65
2024/01/06 11:40:44;;;;;;;6.07;4.30;;;5.40;71.70;;;;;;5071292;28;20255;-65
2024/01/06 11:43:11;;;;;;;6.27;4.70;;;5.40;72.80;;;;;;5078812;28;20257;-64
2024/01/06 11:45:38;;;;;;;5.97;4.33;;;5.40;72.00;;;;;;5078880;28;20283;-65
2024/01/06 11:48:04;;;;;;;5.10;4.53;;;5.30;71.50;;;;;;5076814;28;20209;-64
2024/01/06 11:50:32;;;;;;;7.00;4.63;;;5.40;72.90;;;;;;5077823;28;20205;-64
2024/01/06 11:52:59;;;;;;;6.47;5.23;;;5.40;71.80;;;;;;5082070;28;20305;-62
2024/01/06 11:55:27;;;;;;;5.47;4.73;;;5.50;72.90;;;;;;5081576;28;20308;-61
2024/01/06 11:57:54;;;;;;;5.70;4.43;;;5.50;72.30;;;;;;5085496;28;20678;-62
2024/01/06 12:00:20;;;;;;;5.90;4.57;;;5.50;72.10;;;;;;5084034;28;20205;-62
2024/01/06 12:02:47;;;;;;;7.27;5.10;;;5.50;71.10;;;;;;5087070;28;20240;-62
2024/01/06 12:05:14;;;;;;;7.37;4.50;;;5.50;71.10;;;;;;5083809;28;20324;-61
2024/01/06 12:07:40;;;;;;;5.10;4.57;;;5.50;71.10;;;;;;5079289;28;20233;-59
2024/01/06 12:10:08;;;;;;;5.30;4.70;;;5.50;71.50;;;;;;5083135;28;20258;-61
2024/01/06 12:12:34;;;;;;;8.37;5.53;;;5.50;71.50;;;;;;5080308;28;20281;-61
2024/01/06 12:15:01;;;;;;;7.80;5.17;;;5.50;71.00;;;;;;5082512;28;20217;-62
2024/01/06 12:17:28;;;;;;;5.10;4.70;;;5.40;72.00;;;;;;5073700;28;20246;-62
2024/01/06 12:19:54;;;;;;;6.23;5.00;;;5.40;72.90;;;;;;5084942;28;20207;-63
2024/01/06 12:22:21;;;;;;;7.70;5.03;;;5.50;72.80;;;;;;5079966;28;20565;-62
2024/01/06 12:24:47;;;;;;;9.33;5.50;;;5.40;72.20;;;;;;5083638;28;20230;-62
2024/01/06 12:27:14;;;;;;;6.27;5.27;;;5.40;71.30;;;;;;5080840;28;20244;-62
2024/01/06 12:29:40;;;;;;;6.70;5.50;;;5.40;72.90;;;;;;5082313;28;20635;-62
2024/01/06 12:32:08;;;;;;;5.93;5.40;;;5.40;73.60;;;;;;5082649;28;20240;-62
2024/01/06 12:34:34;;;;;;;8.40;5.03;;;5.40;73.20;;;;;;5078512;28;20646;-62
2024/01/06 12:37:01;;;;;;;6.50;5.10;;;5.40;73.70;;;;;;5088633;28;20729;-61
2024/01/06 12:39:28;;;;;;;7.50;4.77;;;5.50;72.10;;;;;;5082221;28;20288;-63
2024/01/06 12:41:54;;;;;;;4.27;3.90;;;5.40;71.80;;;;;;5081120;28;20194;-63
2024/01/06 12:44:21;;;;;;;5.90;4.87;;;5.30;70.40;;;;;;5078012;28;20237;-63
2024/01/06 12:46:47;;;;;;;5.57;4.63;;;5.10;70.80;;;;;;5076921;28;20258;-62
2024/01/06 12:49:14;;;;;;;5.20;4.67;;;5.10;71.10;;;;;;5078189;28;20244;-64
2024/01/06 12:51:40;;;;;;;6.93;5.20;;;5.10;71.90;;;;;;5078858;28;20210;-63
2024/01/06 12:54:07;;;;;;;6.10;4.37;;;5.20;71.80;;;;;;5076660;28;20291;-63